sensor_id;sensor_type;location;lat;lon;timestamp;pressure;altitude;pressure_sealevel;temperature;humidity
51359;BME280;37448;51.588;7.248;2023-06-19T00:01:31;100234.50;;;24.06;44.21
51359;BME280;37448;51.588;7.248;2023-06-19T00:03:31;100226.75;;;24.03;44.22
51359;BME280;37448;51.588;7.248;2023-06-19T00:05:31;100225.06;;;24.02;44.22
51359;BME280;37448;51.588;7.248;2023-06-19T00:07:32;100228.72;;;24.01;44.53
51359;BME280;37448;51.588;7.248;2023-06-19T00:09:32;100228.78;;;24.00;44.44
51359;BME280;37448;51.588;7.248;2023-06-19T00:11:33;100225.69;;;23.94;44.72
51359;BME280;37448;51.588;7.248;2023-06-19T00:13:33;100233.81;;;23.93;44.30
51359;BME280;37448;51.588;7.248;2023-06-19T00:15:36;100226.31;;;23.87;44.38
51359;BME280;37448;51.588;7.248;2023-06-19T00:17:37;100233.63;;;23.85;44.48
51359;BME280;37448;51.588;7.248;2023-06-19T00:19:37;100233.88;;;23.82;44.95
51359;BME280;37448;51.588;7.248;2023-06-19T00:21:38;100214.63;;;23.78;44.83
51359;BME280;37448;51.588;7.248;2023-06-19T00:23:39;100229.91;;;23.76;44.70
51359;BME280;37448;51.588;7.248;2023-06-19T00:25:42;100227.50;;;23.73;44.71
51359;BME280;37448;51.588;7.248;2023-06-19T00:27:43;100232.22;;;23.69;44.71
51359;BME280;37448;51.588;7.248;2023-06-19T00:29:43;100228.00;;;23.67;45.17
51359;BME280;37448;51.588;7.248;2023-06-19T00:31:44;100230.06;;;23.63;45.27
51359;BME280;37448;51.588;7.248;2023-06-19T00:33:45;100241.97;;;23.59;45.60
51359;BME280;37448;51.588;7.248;2023-06-19T00:35:50;100241.25;;;23.57;45.23
51359;BME280;37448;51.588;7.248;2023-06-19T00:37:51;100238.84;;;23.54;45.44
51359;BME280;37448;51.588;7.248;2023-06-19T00:39:51;100232.81;;;23.51;45.64
51359;BME280;37448;51.588;7.248;2023-06-19T00:41:52;100234.97;;;23.46;45.61
51359;BME280;37448;51.588;7.248;2023-06-19T00:43:52;100240.56;;;23.43;45.70
51359;BME280;37448;51.588;7.248;2023-06-19T00:45:56;100239.13;;;23.39;46.22
51359;BME280;37448;51.588;7.248;2023-06-19T00:47:59;100235.03;;;23.35;46.00
51359;BME280;37448;51.588;7.248;2023-06-19T00:49:59;100240.00;;;23.28;46.74
51359;BME280;37448;51.588;7.248;2023-06-19T00:52:00;100240.13;;;23.27;46.56
51359;BME280;37448;51.588;7.248;2023-06-19T00:54:00;100248.34;;;23.23;46.72
51359;BME280;37448;51.588;7.248;2023-06-19T00:56:01;100246.63;;;23.22;46.49
51359;BME280;37448;51.588;7.248;2023-06-19T00:58:04;100252.94;;;23.21;46.89
51359;BME280;37448;51.588;7.248;2023-06-19T01:00:05;100254.88;;;23.19;47.05
51359;BME280;37448;51.588;7.248;2023-06-19T01:02:07;100253.34;;;23.17;47.16
51359;BME280;37448;51.588;7.248;2023-06-19T01:04:08;100252.38;;;23.18;47.18
51359;BME280;37448;51.588;7.248;2023-06-19T01:06:13;100254.41;;;23.14;47.02
51359;BME280;37448;51.588;7.248;2023-06-19T01:09:17;100258.06;;;23.13;47.04
51359;BME280;37448;51.588;7.248;2023-06-19T01:11:00;100248.47;;;23.11;47.10
51359;BME280;37448;51.588;7.248;2023-06-19T01:13:07;100251.28;;;23.09;47.56
51359;BME280;37448;51.588;7.248;2023-06-19T01:15:09;100246.22;;;23.06;47.84
51359;BME280;37448;51.588;7.248;2023-06-19T01:17:09;100249.97;;;23.03;47.70
51359;BME280;37448;51.588;7.248;2023-06-19T01:19:10;100247.41;;;23.02;47.78
51359;BME280;37448;51.588;7.248;2023-06-19T01:21:17;100254.41;;;23.03;47.85
51359;BME280;37448;51.588;7.248;2023-06-19T01:23:17;100249.25;;;23.01;47.92
51359;BME280;37448;51.588;7.248;2023-06-19T01:25:17;100243.19;;;22.99;48.14
51359;BME280;37448;51.588;7.248;2023-06-19T01:27:18;100254.66;;;23.00;48.72
51359;BME280;37448;51.588;7.248;2023-06-19T01:29:18;100252.97;;;22.99;49.00
51359;BME280;37448;51.588;7.248;2023-06-19T01:31:27;100252.97;;;22.99;49.18
51359;BME280;37448;51.588;7.248;2023-06-19T01:33:30;100251.28;;;22.98;49.32
51359;BME280;37448;51.588;7.248;2023-06-19T01:35:35;100249.59;;;22.97;49.75
51359;BME280;37448;51.588;7.248;2023-06-19T01:37:37;100248.88;;;22.94;49.54
51359;BME280;37448;51.588;7.248;2023-06-19T01:39:40;100251.53;;;22.94;49.62
51359;BME280;37448;51.588;7.248;2023-06-19T01:41:45;100243.81;;;22.91;50.00
51359;BME280;37448;51.588;7.248;2023-06-19T01:43:47;100243.81;;;22.91;49.82
51359;BME280;37448;51.588;7.248;2023-06-19T01:45:48;100241.13;;;22.91;49.41
51359;BME280;37448;51.588;7.248;2023-06-19T01:47:49;100237.75;;;22.89;49.61
51359;BME280;37448;51.588;7.248;2023-06-19T01:49:49;100245.84;;;22.88;49.35
51359;BME280;37448;51.588;7.248;2023-06-19T01:51:50;100235.44;;;22.85;49.57
51359;BME280;37448;51.588;7.248;2023-06-19T01:53:50;100234.88;;;22.81;49.76
51359;BME280;37448;51.588;7.248;2023-06-19T01:55:50;100235.09;;;22.78;49.82
51359;BME280;37448;51.588;7.248;2023-06-19T01:57:51;100223.25;;;22.71;50.10
51359;BME280;37448;51.588;7.248;2023-06-19T01:59:52;100230.75;;;22.65;49.87
51359;BME280;37448;51.588;7.248;2023-06-19T02:01:52;100232.94;;;22.60;50.02
51359;BME280;37448;51.588;7.248;2023-06-19T02:03:53;100231.59;;;22.55;50.13
51359;BME280;37448;51.588;7.248;2023-06-19T02:05:53;100224.13;;;22.48;50.46
51359;BME280;37448;51.588;7.248;2023-06-19T02:07:54;100231.94;;;22.39;51.78
51359;BME280;37448;51.588;7.248;2023-06-19T02:09:54;100234.84;;;22.35;51.63
51359;BME280;37448;51.588;7.248;2023-06-19T02:11:56;100236.78;;;22.33;51.50
51359;BME280;37448;51.588;7.248;2023-06-19T02:13:56;100224.44;;;22.32;51.39
51359;BME280;37448;51.588;7.248;2023-06-19T02:15:57;100231.66;;;22.30;51.85
51359;BME280;37448;51.588;7.248;2023-06-19T02:17:59;100235.53;;;22.26;52.33
51359;BME280;37448;51.588;7.248;2023-06-19T02:20:00;100233.84;;;22.25;52.58
51359;BME280;37448;51.588;7.248;2023-06-19T02:22:00;100235.66;;;22.25;52.59
51359;BME280;37448;51.588;7.248;2023-06-19T02:24:01;100232.16;;;22.24;52.57
51359;BME280;37448;51.588;7.248;2023-06-19T02:26:01;100231.91;;;22.27;52.43
51359;BME280;37448;51.588;7.248;2023-06-19T02:28:02;100233.84;;;22.25;52.91
51359;BME280;37448;51.588;7.248;2023-06-19T02:30:04;100236.63;;;22.23;53.08
51359;BME280;37448;51.588;7.248;2023-06-19T02:32:05;100240.84;;;22.26;52.66
51359;BME280;37448;51.588;7.248;2023-06-19T02:34:08;100244.47;;;22.25;53.02
51359;BME280;37448;51.588;7.248;2023-06-19T02:36:11;100253.41;;;22.24;54.05
51359;BME280;37448;51.588;7.248;2023-06-19T02:38:13;100256.06;;;22.24;53.56
51359;BME280;37448;51.588;7.248;2023-06-19T02:40:14;100256.22;;;22.22;54.38
51359;BME280;37448;51.588;7.248;2023-06-19T02:42:15;100260.66;;;22.22;53.89
51359;BME280;37448;51.588;7.248;2023-06-19T02:44:17;100260.66;;;22.22;53.98
51359;BME280;37448;51.588;7.248;2023-06-19T02:46:17;100267.69;;;22.23;54.01
51359;BME280;37448;51.588;7.248;2023-06-19T02:48:18;100261.41;;;22.24;54.02
51359;BME280;37448;51.588;7.248;2023-06-19T02:50:19;100268.53;;;22.23;53.79
51359;BME280;37448;51.588;7.248;2023-06-19T02:52:20;100271.31;;;22.22;53.90
51359;BME280;37448;51.588;7.248;2023-06-19T02:54:21;100272.50;;;22.18;53.89
51359;BME280;37448;51.588;7.248;2023-06-19T02:56:22;100281.69;;;22.14;54.27
51359;BME280;37448;51.588;7.248;2023-06-19T02:58:23;100283.72;;;22.10;53.95
51359;BME280;37448;51.588;7.248;2023-06-19T03:00:23;100277.81;;;22.06;53.88
51359;BME280;37448;51.588;7.248;2023-06-19T03:02:23;100299.28;;;22.03;53.85
51359;BME280;37448;51.588;7.248;2023-06-19T03:04:24;100297.81;;;21.99;53.89
51359;BME280;37448;51.588;7.248;2023-06-19T03:06:24;100299.75;;;21.97;53.69
51359;BME280;37448;51.588;7.248;2023-06-19T03:08:26;100291.28;;;21.92;53.84
51359;BME280;37448;51.588;7.248;2023-06-19T03:10:26;100298.38;;;21.80;55.03
51359;BME280;37448;51.588;7.248;2023-06-19T03:12:26;100301.53;;;21.85;53.90
51359;BME280;37448;51.588;7.248;2023-06-19T03:14:27;100302.38;;;21.86;53.84
51359;BME280;37448;51.588;7.248;2023-06-19T03:16:28;100310.44;;;21.84;54.09
51359;BME280;37448;51.588;7.248;2023-06-19T03:18:28;100318.44;;;21.84;53.59
51359;BME280;37448;51.588;7.248;2023-06-19T03:20:28;100320.03;;;21.87;53.19
51359;BME280;37448;51.588;7.248;2023-06-19T03:22:31;100315.66;;;21.86;53.54
51359;BME280;37448;51.588;7.248;2023-06-19T03:24:31;100318.09;;;21.89;53.05
51359;BME280;37448;51.588;7.248;2023-06-19T03:26:45;100324.88;;;21.93;52.55
51359;BME280;37448;51.588;7.248;2023-06-19T03:28:46;100326.09;;;22.00;52.57
51359;BME280;37448;51.588;7.248;2023-06-19T03:30:50;100329.47;;;22.02;52.24
51359;BME280;37448;51.588;7.248;2023-06-19T03:32:54;100327.56;;;22.04;52.21
51359;BME280;37448;51.588;7.248;2023-06-19T03:35:15;100327.84;;;22.13;51.93
51359;BME280;37448;51.588;7.248;2023-06-19T03:37:17;100335.59;;;22.16;52.06
51359;BME280;37448;51.588;7.248;2023-06-19T03:39:18;100337.06;;;22.20;51.87
51359;BME280;37448;51.588;7.248;2023-06-19T03:41:18;100343.66;;;22.14;52.20
51359;BME280;37448;51.588;7.248;2023-06-19T03:43:19;100342.38;;;22.20;52.23
51359;BME280;37448;51.588;7.248;2023-06-19T03:45:19;100344.41;;;22.16;52.51
51359;BME280;37448;51.588;7.248;2023-06-19T03:47:21;100344.53;;;22.15;52.88
51359;BME280;37448;51.588;7.248;2023-06-19T03:49:21;100353.00;;;22.20;52.70
51359;BME280;37448;51.588;7.248;2023-06-19T03:51:24;100355.25;;;22.13;53.39
51359;BME280;37448;51.588;7.248;2023-06-19T03:53:24;100350.09;;;22.12;53.56
51359;BME280;37448;51.588;7.248;2023-06-19T03:55:25;100352.75;;;22.12;53.48
51359;BME280;37448;51.588;7.248;2023-06-19T03:57:26;100355.63;;;22.08;54.20
51359;BME280;37448;51.588;7.248;2023-06-19T03:59:26;100355.84;;;22.05;53.98
51359;BME280;37448;51.588;7.248;2023-06-19T04:01:27;100366.19;;;21.97;55.07
51359;BME280;37448;51.588;7.248;2023-06-19T04:03:27;100366.84;;;22.01;55.26
51359;BME280;37448;51.588;7.248;2023-06-19T04:05:28;100361.16;;;22.05;55.43
51359;BME280;37448;51.588;7.248;2023-06-19T04:07:28;100373.50;;;22.06;55.45
51359;BME280;37448;51.588;7.248;2023-06-19T04:09:30;100372.75;;;22.04;55.56
51359;BME280;37448;51.588;7.248;2023-06-19T04:11:30;100379.25;;;22.00;55.58
51359;BME280;37448;51.588;7.248;2023-06-19T04:13:31;100366.94;;;21.99;55.68
51359;BME280;37448;51.588;7.248;2023-06-19T04:15:32;100376.97;;;21.96;55.78
51359;BME280;37448;51.588;7.248;2023-06-19T04:17:33;100380.69;;;21.93;56.16
51359;BME280;37448;51.588;7.248;2023-06-19T04:19:33;100390.44;;;21.92;56.30
51359;BME280;37448;51.588;7.248;2023-06-19T04:21:34;100391.81;;;21.98;56.31
51359;BME280;37448;51.588;7.248;2023-06-19T04:23:34;100395.66;;;21.94;56.56
51359;BME280;37448;51.588;7.248;2023-06-19T04:25:35;100392.03;;;21.95;56.49
51359;BME280;37448;51.588;7.248;2023-06-19T04:27:35;100389.88;;;22.00;56.12
51359;BME280;37448;51.588;7.248;2023-06-19T04:29:36;100400.66;;;21.99;56.52
51359;BME280;37448;51.588;7.248;2023-06-19T04:31:37;100396.72;;;21.91;56.56
51359;BME280;37448;51.588;7.248;2023-06-19T04:33:41;100401.84;;;21.94;56.40
51359;BME280;37448;51.588;7.248;2023-06-19T04:35:42;100404.84;;;21.90;56.42
51359;BME280;37448;51.588;7.248;2023-06-19T04:37:42;100409.91;;;21.93;56.16
51359;BME280;37448;51.588;7.248;2023-06-19T04:39:42;100411.72;;;21.92;56.57
51359;BME280;37448;51.588;7.248;2023-06-19T04:41:44;100420.56;;;21.93;56.23
51359;BME280;37448;51.588;7.248;2023-06-19T04:43:44;100418.84;;;21.92;56.16
51359;BME280;37448;51.588;7.248;2023-06-19T04:45:44;100420.78;;;21.90;56.30
51359;BME280;37448;51.588;7.248;2023-06-19T04:47:45;100428.00;;;21.88;56.69
51359;BME280;37448;51.588;7.248;2023-06-19T04:49:46;100430.03;;;21.84;57.14
51359;BME280;37448;51.588;7.248;2023-06-19T04:51:46;100440.56;;;21.86;57.65
51359;BME280;37448;51.588;7.248;2023-06-19T04:53:48;100431.09;;;21.82;57.97
51359;BME280;37448;51.588;7.248;2023-06-19T04:55:48;100435.03;;;21.89;57.78
51359;BME280;37448;51.588;7.248;2023-06-19T04:57:49;100434.06;;;21.90;57.70
51359;BME280;37448;51.588;7.248;2023-06-19T04:59:50;100431.28;;;21.91;57.61
51359;BME280;37448;51.588;7.248;2023-06-19T05:01:50;100419.72;;;21.79;58.44
51359;BME280;37448;51.588;7.248;2023-06-19T05:03:55;100438.66;;;21.88;57.78
51359;BME280;37448;51.588;7.248;2023-06-19T05:05:56;100448.31;;;21.89;57.84
51359;BME280;37448;51.588;7.248;2023-06-19T05:07:56;100447.63;;;21.98;57.63
51359;BME280;37448;51.588;7.248;2023-06-19T05:09:57;100458.41;;;21.97;57.81
51359;BME280;37448;51.588;7.248;2023-06-19T05:11:58;100459.75;;;22.02;57.76
51359;BME280;37448;51.588;7.248;2023-06-19T05:13:58;100462.94;;;22.07;57.44
51359;BME280;37448;51.588;7.248;2023-06-19T05:15:58;100464.53;;;21.97;57.78
51359;BME280;37448;51.588;7.248;2023-06-19T05:17:59;100469.41;;;22.03;57.29
51359;BME280;37448;51.588;7.248;2023-06-19T05:19:59;100471.34;;;22.01;57.49
51359;BME280;37448;51.588;7.248;2023-06-19T05:22:00;100469.63;;;22.00;57.81
51359;BME280;37448;51.588;7.248;2023-06-19T05:24:00;100468.44;;;22.04;58.13
51359;BME280;37448;51.588;7.248;2023-06-19T05:26:00;100470.41;;;22.27;57.14
51359;BME280;37448;51.588;7.248;2023-06-19T05:28:01;100466.94;;;22.37;56.76
51359;BME280;37448;51.588;7.248;2023-06-19T05:30:01;100472.25;;;22.62;56.04
51359;BME280;37448;51.588;7.248;2023-06-19T05:32:02;100477.78;;;22.83;55.60
51359;BME280;37448;51.588;7.248;2023-06-19T05:34:02;100470.34;;;23.11;54.97
51359;BME280;37448;51.588;7.248;2023-06-19T05:36:03;100466.16;;;23.31;54.58
51359;BME280;37448;51.588;7.248;2023-06-19T05:38:04;100473.66;;;23.49;54.02
51359;BME280;37448;51.588;7.248;2023-06-19T05:40:06;100478.66;;;23.54;53.66
51359;BME280;37448;51.588;7.248;2023-06-19T05:42:07;100479.34;;;23.67;53.38
51359;BME280;37448;51.588;7.248;2023-06-19T05:44:07;100478.38;;;23.68;53.06
51359;BME280;37448;51.588;7.248;2023-06-19T05:46:08;100474.97;;;23.89;53.34
51359;BME280;37448;51.588;7.248;2023-06-19T05:48:08;100475.69;;;23.91;52.73
51359;BME280;37448;51.588;7.248;2023-06-19T05:50:09;100479.56;;;24.10;53.22
51359;BME280;37448;51.588;7.248;2023-06-19T05:52:09;100485.56;;;24.34;52.50
51359;BME280;37448;51.588;7.248;2023-06-19T05:54:10;100485.03;;;24.41;52.11
51359;BME280;37448;51.588;7.248;2023-06-19T05:56:10;100481.22;;;24.22;51.83
51359;BME280;37448;51.588;7.248;2023-06-19T05:58:10;100485.00;;;24.19;52.37
51359;BME280;37448;51.588;7.248;2023-06-19T06:00:11;100495.81;;;24.06;52.02
51359;BME280;37448;51.588;7.248;2023-06-19T06:02:14;100487.31;;;24.13;52.65
51359;BME280;37448;51.588;7.248;2023-06-19T06:04:15;100499.78;;;24.23;52.32
51359;BME280;37448;51.588;7.248;2023-06-19T06:06:15;100497.47;;;24.19;52.21
51359;BME280;37448;51.588;7.248;2023-06-19T06:08:16;100512.50;;;24.20;52.49
51359;BME280;37448;51.588;7.248;2023-06-19T06:10:16;100509.50;;;24.13;52.11
51359;BME280;37448;51.588;7.248;2023-06-19T06:12:17;100511.56;;;24.10;52.74
51359;BME280;37448;51.588;7.248;2023-06-19T06:14:17;100513.22;;;23.99;53.07
51359;BME280;37448;51.588;7.248;2023-06-19T06:16:18;100521.22;;;23.99;52.93
51359;BME280;37448;51.588;7.248;2023-06-19T06:18:19;100522.84;;;23.90;53.47
51359;BME280;37448;51.588;7.248;2023-06-19T06:20:19;100521.88;;;23.69;53.74
51359;BME280;37448;51.588;7.248;2023-06-19T06:22:20;100524.28;;;23.60;53.72
51359;BME280;37448;51.588;7.248;2023-06-19T06:24:20;100531.19;;;23.74;53.80
51359;BME280;37448;51.588;7.248;2023-06-19T06:26:21;100538.47;;;23.72;53.65
51359;BME280;37448;51.588;7.248;2023-06-19T06:28:21;100533.53;;;23.68;53.85
51359;BME280;37448;51.588;7.248;2023-06-19T06:30:22;100545.59;;;23.49;54.45
51359;BME280;37448;51.588;7.248;2023-06-19T06:32:23;100537.34;;;23.29;54.98
51359;BME280;37448;51.588;7.248;2023-06-19T06:34:24;100552.84;;;23.00;55.30
51359;BME280;37448;51.588;7.248;2023-06-19T06:36:25;100553.53;;;22.90;55.89
51359;BME280;37448;51.588;7.248;2023-06-19T06:38:25;100553.22;;;22.71;57.23
51359;BME280;37448;51.588;7.248;2023-06-19T06:40:25;100550.53;;;22.59;56.78
51359;BME280;37448;51.588;7.248;2023-06-19T06:42:26;100552.00;;;22.63;56.59
51359;BME280;37448;51.588;7.248;2023-06-19T06:44:26;100550.69;;;22.69;56.25
51359;BME280;37448;51.588;7.248;2023-06-19T06:46:26;100549.88;;;22.80;55.97
51359;BME280;37448;51.588;7.248;2023-06-19T06:48:27;100546.53;;;22.89;56.02
51359;BME280;37448;51.588;7.248;2023-06-19T06:50:27;100556.47;;;22.99;55.96
51359;BME280;37448;51.588;7.248;2023-06-19T06:52:28;100556.53;;;23.21;56.36
51359;BME280;37448;51.588;7.248;2023-06-19T06:54:30;100553.72;;;23.36;55.56
51359;BME280;37448;51.588;7.248;2023-06-19T06:56:31;100556.13;;;23.50;56.00
51359;BME280;37448;51.588;7.248;2023-06-19T06:58:31;100553.84;;;23.57;54.43
51359;BME280;37448;51.588;7.248;2023-06-19T07:00:31;100557.50;;;23.68;54.50
51359;BME280;37448;51.588;7.248;2023-06-19T07:02:32;100548.91;;;23.75;54.52
51359;BME280;37448;51.588;7.248;2023-06-19T07:04:32;100551.31;;;23.78;54.48
51359;BME280;37448;51.588;7.248;2023-06-19T07:06:33;100559.06;;;23.82;53.73
51359;BME280;37448;51.588;7.248;2023-06-19T07:08:33;100556.53;;;24.03;53.47
51359;BME280;37448;51.588;7.248;2023-06-19T07:10:33;100565.84;;;23.97;53.28
51359;BME280;37448;51.588;7.248;2023-06-19T07:12:34;100559.31;;;23.90;53.04
51359;BME280;37448;51.588;7.248;2023-06-19T07:14:34;100561.13;;;23.67;53.94
51359;BME280;37448;51.588;7.248;2023-06-19T07:16:35;100556.28;;;23.72;53.25
51359;BME280;37448;51.588;7.248;2023-06-19T07:18:35;100561.38;;;23.75;53.62
51359;BME280;37448;51.588;7.248;2023-06-19T07:20:38;100565.59;;;23.55;55.40
51359;BME280;37448;51.588;7.248;2023-06-19T07:22:39;100569.09;;;23.55;54.82
51359;BME280;37448;51.588;7.248;2023-06-19T07:24:40;100561.47;;;23.50;54.55
51359;BME280;37448;51.588;7.248;2023-06-19T07:26:41;100572.25;;;23.49;54.50
51359;BME280;37448;51.588;7.248;2023-06-19T07:28:42;100577.28;;;23.29;55.52
51359;BME280;37448;51.588;7.248;2023-06-19T07:30:42;100582.94;;;23.25;55.46
51359;BME280;37448;51.588;7.248;2023-06-19T07:32:44;100579.53;;;23.22;54.83
51359;BME280;37448;51.588;7.248;2023-06-19T07:34:45;100586.78;;;23.20;55.33
51359;BME280;37448;51.588;7.248;2023-06-19T07:36:45;100584.34;;;23.06;55.71
51359;BME280;37448;51.588;7.248;2023-06-19T07:38:46;100589.16;;;23.01;55.74
51359;BME280;37448;51.588;7.248;2023-06-19T07:40:46;100596.53;;;22.97;55.90
51359;BME280;37448;51.588;7.248;2023-06-19T07:42:47;100588.88;;;22.92;56.36
51359;BME280;37448;51.588;7.248;2023-06-19T07:44:47;100588.53;;;22.97;55.75
51359;BME280;37448;51.588;7.248;2023-06-19T07:46:48;100587.41;;;22.88;56.53
51359;BME280;37448;51.588;7.248;2023-06-19T07:48:48;100578.47;;;22.89;56.44
51359;BME280;37448;51.588;7.248;2023-06-19T07:50:49;100595.66;;;22.97;56.21
51359;BME280;37448;51.588;7.248;2023-06-19T07:52:49;100595.97;;;22.80;56.78
51359;BME280;37448;51.588;7.248;2023-06-19T07:54:54;100605.56;;;22.83;57.11
51359;BME280;37448;51.588;7.248;2023-06-19T07:56:55;100596.19;;;22.77;57.27
51359;BME280;37448;51.588;7.248;2023-06-19T07:58:56;100605.56;;;22.83;56.94
51359;BME280;37448;51.588;7.248;2023-06-19T08:00:56;100600.06;;;22.73;57.31
51359;BME280;37448;51.588;7.248;2023-06-19T08:02:56;100598.13;;;22.75;56.95
51359;BME280;37448;51.588;7.248;2023-06-19T08:04:57;100601.13;;;22.71;57.83
51359;BME280;37448;51.588;7.248;2023-06-19T08:06:57;100607.72;;;22.65;57.65
51359;BME280;37448;51.588;7.248;2023-06-19T08:08:58;100604.75;;;22.70;57.71
51359;BME280;37448;51.588;7.248;2023-06-19T08:10:58;100605.72;;;22.69;57.92
51359;BME280;37448;51.588;7.248;2023-06-19T08:12:58;100604.25;;;22.64;58.31
51359;BME280;37448;51.588;7.248;2023-06-19T08:14:59;100613.06;;;22.65;58.77
51359;BME280;37448;51.588;7.248;2023-06-19T08:16:59;100618.19;;;22.68;58.43
51359;BME280;37448;51.588;7.248;2023-06-19T08:18:59;100611.75;;;22.71;58.72
51359;BME280;37448;51.588;7.248;2023-06-19T08:21:00;100604.28;;;22.76;58.60
51359;BME280;37448;51.588;7.248;2023-06-19T08:23:00;100605.09;;;22.89;58.20
51359;BME280;37448;51.588;7.248;2023-06-19T08:25:01;100607.41;;;22.94;59.16
51359;BME280;37448;51.588;7.248;2023-06-19T08:27:02;100605.19;;;23.12;58.25
51359;BME280;37448;51.588;7.248;2023-06-19T08:29:02;100604.09;;;23.15;58.14
51359;BME280;37448;51.588;7.248;2023-06-19T08:31:03;100602.03;;;23.43;57.85
51359;BME280;37448;51.588;7.248;2023-06-19T08:33:03;100603.66;;;23.79;56.96
51359;BME280;37448;51.588;7.248;2023-06-19T08:35:04;100607.19;;;23.91;56.67
51359;BME280;37448;51.588;7.248;2023-06-19T08:37:08;100604.06;;;24.20;55.75
51359;BME280;37448;51.588;7.248;2023-06-19T08:39:08;100602.84;;;24.36;55.24
51359;BME280;37448;51.588;7.248;2023-06-19T08:41:09;100606.19;;;24.49;55.98
51359;BME280;37448;51.588;7.248;2023-06-19T08:43:11;100604.38;;;24.39;55.30
51359;BME280;37448;51.588;7.248;2023-06-19T08:45:11;100597.56;;;24.57;53.67
51359;BME280;37448;51.588;7.248;2023-06-19T08:47:14;100599.25;;;24.58;53.69
51359;BME280;37448;51.588;7.248;2023-06-19T08:49:15;100602.66;;;24.60;53.30
51359;BME280;37448;51.588;7.248;2023-06-19T08:51:16;100595.84;;;24.79;52.99
51359;BME280;37448;51.588;7.248;2023-06-19T08:53:16;100612.03;;;24.99;52.10
51359;BME280;37448;51.588;7.248;2023-06-19T08:55:17;100597.28;;;25.04;51.72
51359;BME280;37448;51.588;7.248;2023-06-19T08:57:17;100602.25;;;25.30;51.79
51359;BME280;37448;51.588;7.248;2023-06-19T08:59:19;100598.75;;;25.30;51.63
51359;BME280;37448;51.588;7.248;2023-06-19T09:01:19;100606.69;;;25.41;50.25
51359;BME280;37448;51.588;7.248;2023-06-19T09:03:21;100612.28;;;25.38;50.46
51359;BME280;37448;51.588;7.248;2023-06-19T09:05:24;100610.59;;;25.37;50.33
51359;BME280;37448;51.588;7.248;2023-06-19T09:07:25;100616.81;;;25.59;49.75
51359;BME280;37448;51.588;7.248;2023-06-19T09:09:26;100608.34;;;26.16;48.71
51359;BME280;37448;51.588;7.248;2023-06-19T09:11:28;100607.19;;;26.40;48.93
51359;BME280;37448;51.588;7.248;2023-06-19T09:13:29;100614.41;;;26.49;47.58
51359;BME280;37448;51.588;7.248;2023-06-19T09:15:32;100617.84;;;26.20;47.30
51359;BME280;37448;51.588;7.248;2023-06-19T09:17:33;100618.88;;;26.29;47.44
51359;BME280;37448;51.588;7.248;2023-06-19T09:19:52;100626.19;;;26.05;46.62
51359;BME280;37448;51.588;7.248;2023-06-19T09:21:52;100623.53;;;25.74;46.90
51359;BME280;37448;51.588;7.248;2023-06-19T09:23:53;100612.19;;;25.61;47.72
51359;BME280;37448;51.588;7.248;2023-06-19T09:25:59;100623.47;;;25.64;47.88
51359;BME280;37448;51.588;7.248;2023-06-19T09:28:03;100627.75;;;25.77;47.92
51359;BME280;37448;51.588;7.248;2023-06-19T09:30:05;100633.59;;;25.92;47.44
51359;BME280;37448;51.588;7.248;2023-06-19T09:32:26;100637.22;;;26.12;47.94
51359;BME280;37448;51.588;7.248;2023-06-19T09:34:29;100635.16;;;26.67;46.88
51359;BME280;37448;51.588;7.248;2023-06-19T09:36:31;100634.50;;;27.04;46.65
51359;BME280;37448;51.588;7.248;2023-06-19T09:38:34;100621.78;;;27.26;46.40
51359;BME280;37448;51.588;7.248;2023-06-19T09:40:34;100617.09;;;27.47;44.71
51359;BME280;37448;51.588;7.248;2023-06-19T09:42:38;100608.91;;;27.59;44.29
51359;BME280;37448;51.588;7.248;2023-06-19T09:44:42;100618.28;;;27.83;44.35
51359;BME280;37448;51.588;7.248;2023-06-19T09:46:44;100625.78;;;27.89;44.34
51359;BME280;37448;51.588;7.248;2023-06-19T09:48:47;100628.03;;;27.84;44.49
51359;BME280;37448;51.588;7.248;2023-06-19T09:50:51;100621.63;;;27.57;43.31
51359;BME280;37448;51.588;7.248;2023-06-19T09:52:55;100627.84;;;27.57;44.41
51359;BME280;37448;51.588;7.248;2023-06-19T09:54:56;100626.84;;;27.48;44.30
51359;BME280;37448;51.588;7.248;2023-06-19T09:56:58;100622.56;;;27.75;44.31
51359;BME280;37448;51.588;7.248;2023-06-19T09:59:00;100623.72;;;28.11;43.48
51359;BME280;37448;51.588;7.248;2023-06-19T10:01:03;100633.16;;;28.15;43.75
51359;BME280;37448;51.588;7.248;2023-06-19T10:03:11;100639.91;;;28.29;42.91
51359;BME280;37448;51.588;7.248;2023-06-19T10:05:12;100633.22;;;28.33;43.03
51359;BME280;37448;51.588;7.248;2023-06-19T10:07:18;100636.66;;;28.25;43.74
51359;BME280;37448;51.588;7.248;2023-06-19T10:09:18;100637.56;;;28.16;43.05
51359;BME280;37448;51.588;7.248;2023-06-19T10:11:19;100629.38;;;28.63;43.09
51359;BME280;37448;51.588;7.248;2023-06-19T10:13:19;100636.81;;;28.51;42.14
51359;BME280;37448;51.588;7.248;2023-06-19T10:15:25;100642.06;;;28.15;41.42
51359;BME280;37448;51.588;7.248;2023-06-19T10:17:30;100637.16;;;27.53;42.25
51359;BME280;37448;51.588;7.248;2023-06-19T10:19:32;100643.22;;;27.26;43.23
51359;BME280;37448;51.588;7.248;2023-06-19T10:21:44;100652.44;;;27.13;44.42
51359;BME280;37448;51.588;7.248;2023-06-19T10:24:01;100645.78;;;26.98;44.25
51359;BME280;37448;51.588;7.248;2023-06-19T10:26:02;100637.16;;;27.23;44.48
51359;BME280;37448;51.588;7.248;2023-06-19T10:28:03;100637.09;;;27.73;43.77
51359;BME280;37448;51.588;7.248;2023-06-19T10:30:16;100639.22;;;27.79;43.26
51359;BME280;37448;51.588;7.248;2023-06-19T10:32:17;100640.66;;;27.73;43.72
51359;BME280;37448;51.588;7.248;2023-06-19T10:34:18;100648.13;;;28.07;41.54
51359;BME280;37448;51.588;7.248;2023-06-19T10:36:21;100636.63;;;28.53;41.73